Time;durP1;ratioP1;P1;durP2;ratioP2;P2;SDS_P1;SDS_P2;PMS_P1;PMS_P2;Temp;Humidity;BMP_temperature;BMP_pressure;BME280_temperature;BME280_humidity;BME280_pressure;Samples;Min_cycle;Max_cycle;Signal;HPM_P1;HPM_P2
2022/05/28 00:02:03;;;;;;;19.95;17.15;;;;;;;18.10;76.67;100658.31;4961122;28;20133;-86
2022/05/28 00:04:29;;;;;;;23.83;16.27;;;;;;;18.13;76.41;100662.47;4995650;28;20050;-84
2022/05/28 00:06:56;;;;;;;;;;;;;;;18.16;76.42;100667.50;4969536;28;20099;-84
2022/05/28 00:09:23;;;;;;;20.58;18.05;;;;;;;18.12;76.40;100656.22;4994363;28;19976;-85
2022/05/28 00:11:49;;;;;;;23.20;19.90;;;;;;;18.02;76.72;100644.06;4997587;28;20022;-85
2022/05/28 00:14:18;;;;;;;;;;;;;;;18.18;76.60;100649.06;4983375;28;20137;-84
2022/05/28 00:16:50;;;;;;;48.85;35.75;;;;;;;18.08;75.94;100638.63;5014289;28;19917;-86
2022/05/28 00:19:54;;;;;;;67.78;42.20;;;;;;;18.22;75.36;100652.22;4999849;28;20026;-83
2022/05/28 00:22:19;;;;;;;46.43;34.77;;;;;;;18.11;75.25;100631.91;4997305;28;20111;-85
2022/05/28 00:24:48;;;;;;;;;;;;;;;18.23;75.05;100643.00;4996671;28;20124;-84
2022/05/28 00:27:13;;;;;;;23.60;18.85;;;;;;;18.16;75.03;100634.00;4972947;28;20002;-84
2022/05/28 00:29:39;;;;;;;;;;;;;;;18.18;74.83;100643.63;4971315;28;20041;-85
2022/05/28 00:32:12;;;;;;;;;;;;;;;18.09;75.28;100639.44;5015439;28;19940;-83
2022/05/28 00:34:59;;;;;;;23.40;18.73;;;;;;;17.98;75.97;100626.47;5006410;28;19924;-82
2022/05/28 00:37:27;;;;;;;25.38;19.25;;;;;;;17.89;75.42;100609.56;4977884;28;20042;-85
2022/05/28 00:39:54;;;;;;;26.95;20.13;;;;;;;17.92;75.40;100625.47;5008742;28;20052;-85
2022/05/28 00:42:19;;;;;;;25.80;20.08;;;;;;;17.72;76.62;100626.28;4998826;28;20503;-84
2022/05/28 00:44:47;;;;;;;;;;;;;;;17.83;75.91;100622.09;5009573;28;20045;-84
2022/05/28 00:47:13;;;;;;;28.58;20.67;;;;;;;17.77;76.25;100625.66;4995039;28;19924;-83
2022/05/28 00:49:40;;;;;;;;;;;;;;;17.80;75.93;100614.34;4994530;28;20037;-83
2022/05/28 00:52:07;;;;;;;28.48;21.08;;;;;;;17.74;76.22;100620.59;4978839;28;19917;-83
2022/05/28 00:54:43;;;;;;;26.88;21.58;;;;;;;17.70;76.08;100597.63;4975661;28;20149;-83
2022/05/28 00:57:08;;;;;;;;;;;;;;;17.66;76.63;100609.97;4981771;28;20184;-83
2022/05/28 00:59:34;;;;;;;28.75;20.92;;;;;;;17.62;76.73;100606.81;5009087;28;20007;-83
2022/05/28 01:02:11;;;;;;;;;;;;;;;17.70;76.68;100608.50;4981044;28;20470;-83
2022/05/28 01:04:42;;;;;;;30.05;21.23;;;;;;;17.63;76.67;100602.19;5018314;28;19913;-83
2022/05/28 01:07:25;;;;;;;27.20;21.27;;;;;;;17.67;76.57;100596.13;4987993;28;20050;-82
2022/05/28 01:09:59;;;;;;;44.47;29.52;;;;;;;17.55;76.92;100596.97;5008856;28;20162;-84
2022/05/28 01:13:17;;;;;;;51.15;34.28;;;;;;;17.57;77.11;100589.47;5013794;28;20046;-82
2022/05/28 01:16:32;;;;;;;52.80;33.72;;;;;;;17.59;76.77;100581.94;4996489;28;20118;-84
2022/05/28 01:19:17;;;;;;;;;;;;;;;17.57;76.71;100586.75;5019145;28;20099;-83
2022/05/28 01:22:10;;;;;;;45.47;27.88;;;;;;;17.55;76.55;100577.94;5011841;28;20347;-82
2022/05/28 01:24:59;;;;;;;44.47;26.73;;;;;;;17.48;76.95;100570.63;5007783;28;20037;-85
2022/05/28 01:28:08;;;;;;;42.05;25.75;;;;;;;17.43;76.82;100575.84;4996565;28;20112;-85
2022/05/28 01:30:39;;;;;;;43.38;25.25;;;;;;;17.43;77.00;100572.31;4983736;28;20215;-84
2022/05/28 01:33:05;;;;;;;39.58;26.45;;;;;;;17.25;77.20;100553.88;5011072;28;20036;-84
2022/05/28 01:35:31;;;;;;;45.08;25.73;;;;;;;17.30;76.97;100565.81;4965611;28;20042;-84
2022/05/28 01:37:58;;;;;;;;;;;;;;;17.33;77.24;100572.72;4980858;28;20128;-84
2022/05/28 01:40:26;;;;;;;43.95;23.90;;;;;;;17.14;77.68;100558.06;4998204;28;20621;-83
2022/05/28 01:42:56;;;;;;;31.85;22.67;;;;;;;17.08;77.40;100562.44;4998591;28;20041;-86
2022/05/28 01:45:26;;;;;;;30.00;22.83;;;;;;;17.14;76.33;100562.63;4997990;28;20072;-82
2022/05/28 01:47:53;;;;;;;33.10;22.58;;;;;;;17.18;75.86;100572.06;4990147;28;20111;-85
2022/05/28 01:50:19;;;;;;;31.25;22.10;;;;;;;17.08;76.05;100565.16;4979441;28;20044;-82
2022/05/28 01:52:46;;;;;;;36.65;24.90;;;;;;;16.98;76.55;100564.72;4961174;28;20026;-84
2022/05/28 01:55:13;;;;;;;39.33;25.85;;;;;;;16.96;77.17;100565.97;4994602;28;20037;-82
2022/05/28 01:57:39;;;;;;;44.97;27.60;;;;;;;16.97;77.41;100563.03;4973758;28;20065;-85
2022/05/28 02:00:12;;;;;;;43.38;27.75;;;;;;;17.02;78.15;100574.13;4981359;28;20490;-83
2022/05/28 02:02:44;;;;;;;49.50;29.42;;;;;;;17.00;78.71;100578.09;4994656;28;20037;-84
2022/05/28 02:05:09;;;;;;;47.38;30.73;;;;;;;17.00;78.68;100564.53;5021462;28;20057;-83
2022/05/28 02:07:37;;;;;;;55.28;30.73;;;;;;;17.12;79.00;100584.59;4974709;28;20034;-83
2022/05/28 02:10:13;;;;;;;52.50;29.75;;;;;;;17.17;78.71;100581.25;4981530;28;20038;-83
2022/05/28 02:12:47;;;;;;;52.17;30.13;;;;;;;17.29;78.41;100579.59;4973843;28;20049;-83
2022/05/28 02:15:39;;;;;;;50.78;28.00;;;;;;;17.30;78.44;100576.69;5038697;28;20101;-83
2022/05/28 02:18:44;;;;;;;48.97;26.67;;;;;;;17.15;78.77;100572.47;4988905;28;20148;-83
2022/05/28 02:21:16;;;;;;;;;;;;;;;17.03;79.42;100580.41;5009178;28;20038;-83
2022/05/28 02:23:57;;;;;;;54.55;27.50;;;;;;;16.88;79.63;100564.28;5001353;28;20673;-85
2022/05/28 02:26:43;;;;;;;53.85;27.98;;;;;;;17.07;79.46;100578.94;4992331;28;20042;-85
2022/05/28 02:29:09;;;;;;;51.30;28.83;;;;;;;17.06;79.07;100563.69;4949151;28;20040;-84
2022/05/28 02:31:50;;;;;;;52.78;29.58;;;;;;;17.13;78.86;100574.56;5004394;28;20034;-83
2022/05/28 02:34:18;;;;;;;49.35;28.55;;;;;;;17.17;78.75;100570.41;4955592;28;20033;-83
2022/05/28 02:36:43;;;;;;;48.20;27.35;;;;;;;17.22;78.31;100563.28;5007752;28;20027;-83
2022/05/28 02:39:09;;;;;;;;;;;;;;;17.33;77.89;100578.16;4971415;28;20037;-84
2022/05/28 02:41:34;;;;;;;;;;;;;;;17.38;77.50;100574.81;5020143;28;20295;-83
2022/05/28 02:44:02;;;;;;;44.20;25.48;;;;;;;17.24;77.59;100554.94;4986018;28;19914;-83
2022/05/28 02:46:29;;;;;;;47.20;26.08;;;;;;;17.19;77.86;100557.44;4975913;28;20573;-84
2022/05/28 02:48:56;;;;;;;46.67;26.27;;;;;;;17.22;77.66;100565.19;5006948;28;20057;-83
2022/05/28 02:51:24;;;;;;;43.40;26.35;;;;;;;17.28;77.81;100572.50;4976488;28;20483;-87
2022/05/28 02:53:52;;;;;;;43.95;25.67;;;;;;;17.17;77.70;100554.09;4999469;28;20073;-83
2022/05/28 02:56:20;;;;;;;42.22;24.20;;;;;;;17.07;77.71;100541.75;4978038;28;20040;-83
2022/05/28 02:58:46;;;;;;;43.17;24.92;;;;;;;17.18;77.53;100564.75;4987048;28;20120;-83
2022/05/28 03:01:23;;;;;;;;;;;;;;;17.30;77.23;100578.53;4994986;28;20046;-84
2022/05/28 03:03:49;;;;;;;41.17;24.38;;;;;;;17.10;77.68;100559.50;4989271;28;19924;-83
2022/05/28 03:06:14;;;;;;;;;;;;;;;17.26;77.39;100574.59;4965918;28;20495;-83
2022/05/28 03:08:40;;;;;;;;;;;;;;;17.31;77.12;100577.53;4987884;28;19921;-83
2022/05/28 03:11:06;;;;;;;;;;;;;;;17.27;77.13;100576.25;5016983;28;19921;-83
2022/05/28 03:13:31;;;;;;;;;;;;;;;17.33;76.99;100580.03;5007364;28;20383;-81
2022/05/28 03:16:00;;;;;;;44.92;24.27;;;;;;;17.35;77.03;100584.22;4998449;28;19986;-82
2022/05/28 03:18:27;;;;;;;41.28;25.52;;;;;;;17.43;76.68;100588.59;4986988;28;20494;-83
2022/05/28 03:21:25;;;;;;;44.75;26.05;;;;;;;17.41;76.61;100596.97;5012224;28;20049;-82
2022/05/28 03:23:51;;;;;;;40.30;26.27;;;;;;;17.41;76.30;100572.50;5002440;28;20042;-84
2022/05/28 03:26:19;;;;;;;;;;;;;;;17.55;76.16;100588.81;4959788;28;20528;-85
2022/05/28 03:28:49;;;;;;;44.88;25.40;;;;;;;17.47;76.09;100576.28;5002377;28;19944;-84
2022/05/28 03:31:14;;;;;;;46.67;25.15;;;;;;;17.60;75.91;100587.13;4976757;28;20054;-83
2022/05/28 03:33:40;;;;;;;;;;;;;;;17.68;75.75;100584.22;4957606;28;20042;-83
2022/05/28 03:36:06;;;;;;;45.35;25.33;;;;;;;17.61;75.89;100571.69;5002102;28;20293;-83
2022/05/28 03:38:36;;;;;;;48.40;26.38;;;;;;;17.76;75.21;100583.16;4977815;28;20029;-84
2022/05/28 03:41:02;;;;;;;44.17;26.48;;;;;;;17.76;74.83;100569.56;5010589;28;20113;-83
2022/05/28 03:43:27;;;;;;;;;;;;;;;17.90;74.69;100581.31;4983057;28;20046;-86
2022/05/28 03:45:53;;;;;;;;;;;;;;;17.88;74.84;100584.22;4995083;28;19918;-84
2022/05/28 03:48:19;;;;;;;;;;;;;;;17.81;74.96;100577.97;4983931;28;19940;-83
2022/05/28 03:50:51;;;;;;;40.95;24.98;;;;;;;17.76;74.91;100550.53;4998364;28;19917;-83
2022/05/28 03:53:19;;;;;;;41.55;24.48;;;;;;;18.01;74.18;100566.25;5006917;28;20521;-82
2022/05/28 03:55:46;;;;;;;48.50;26.63;;;;;;;18.05;73.66;100556.59;4951503;28;20065;-82
2022/05/28 03:58:12;;;;;;;43.55;24.73;;;;;;;18.19;73.67;100569.13;4979096;28;20041;-82
2022/05/28 04:00:40;;;;;;;46.28;26.17;;;;;;;18.12;73.63;100563.72;5011691;28;20060;-83
2022/05/28 04:03:07;;;;;;;46.47;26.00;;;;;;;18.10;73.44;100559.53;5008510;28;20033;-83
2022/05/28 04:05:33;;;;;;;49.05;27.70;;;;;;;18.31;72.78;100572.88;4995862;28;20072;-83
2022/05/28 04:07:59;;;;;;;;;;;;;;;18.42;72.44;100578.69;4963020;28;20038;-82
2022/05/28 04:10:25;;;;;;;42.85;24.65;;;;;;;18.52;71.95;100576.34;5012143;28;20456;-84
2022/05/28 04:12:50;;;;;;;;;;;;;;;18.62;71.59;100579.44;4989898;28;20088;-81
2022/05/28 04:15:16;;;;;;;;;;;;;;;18.60;71.16;100584.28;4991389;28;19952;-83
2022/05/28 04:17:44;;;;;;;42.78;23.35;;;;;;;18.67;71.17;100587.81;4995973;28;19921;-84
2022/05/28 04:20:13;;;;;;;42.28;23.23;;;;;;;18.73;70.90;100576.06;4975146;28;20033;-83
2022/05/28 04:22:41;;;;;;;39.30;23.85;;;;;;;18.94;70.72;100584.97;5003914;28;20112;-83
2022/05/28 04:25:07;;;;;;;38.58;23.27;;;;;;;19.12;69.95;100586.97;5029168;28;20041;-84
2022/05/28 04:27:35;;;;;;;;;;;;;;;19.28;69.23;100597.34;5009640;28;20077;-84
2022/05/28 04:30:11;;;;;;;40.90;22.85;;;;;;;19.25;68.65;100592.34;4994859;28;19956;-83
2022/05/28 04:32:38;;;;;;;43.13;23.33;;;;;;;19.39;68.45;100595.81;4988400;28;20034;-83
2022/05/28 04:35:03;;;;;;;;;;;;;;;19.51;67.94;100599.50;5019398;28;20125;-82
2022/05/28 04:37:29;;;;;;;41.72;22.85;;;;;;;19.50;68.06;100592.38;5008240;28;19960;-87
2022/05/28 04:39:54;;;;;;;;;;;;;;;19.68;67.89;100602.53;5001457;28;20069;-86
2022/05/28 04:42:20;;;;;;;39.35;22.50;;;;;;;19.80;67.14;100589.00;4992409;28;20322;-84
2022/05/28 04:44:46;;;;;;;37.35;22.10;;;;;;;19.91;66.64;100582.00;5015592;28;20045;-85
2022/05/28 04:47:15;;;;;;;;;;;;;;;20.16;66.04;100601.91;4961342;28;20371;-86
2022/05/28 04:49:42;;;;;;;38.80;20.90;;;;;;;20.24;66.09;100603.50;5006823;28;19918;-86
2022/05/28 04:52:09;;;;;;;38.38;21.27;;;;;;;20.42;64.55;100594.47;4974239;28;20498;-83
2022/05/28 04:54:35;;;;;;;36.42;20.10;;;;;;;20.44;64.86;100608.75;4997113;28;20041;-83
2022/05/28 04:57:02;;;;;;;32.75;20.35;;;;;;;20.63;64.42;100613.16;5002981;28;20438;-83
2022/05/28 04:59:29;;;;;;;33.22;19.88;;;;;;;20.77;64.51;100608.38;4999972;28;20034;-86
2022/05/28 05:01:56;;;;;;;32.53;19.73;;;;;;;20.81;63.80;100620.53;5003244;28;20563;-84
2022/05/28 05:04:23;;;;;;;31.83;18.95;;;;;;;21.00;63.20;100617.72;5007457;28;20038;-82
2022/05/28 05:06:51;;;;;;;30.08;18.17;;;;;;;20.93;62.60;100596.00;4978015;28;20486;-82
2022/05/28 05:09:22;;;;;;;26.95;17.70;;;;;;;21.21;62.24;100614.50;4999751;28;20053;-84
2022/05/28 05:11:49;;;;;;;32.60;17.98;;;;;;;21.31;61.71;100607.66;5008246;28;20030;-85
2022/05/28 05:14:15;;;;;;;26.08;17.17;;;;;;;21.38;61.27;100590.06;4969788;28;20045;-84
2022/05/28 05:16:44;;;;;;;24.42;16.75;;;;;;;21.67;60.89;100621.19;4984827;28;20037;-87
2022/05/28 05:19:12;;;;;;;29.10;17.58;;;;;;;21.80;60.01;100613.84;4999085;28;20097;-85
2022/05/28 05:21:41;;;;;;;24.95;16.92;;;;;;;21.98;59.80;100610.97;5007720;28;20113;-83
2022/05/28 05:24:07;;;;;;;24.73;16.48;;;;;;;22.02;59.14;100593.00;4973447;28;20068;-86
2022/05/28 05:26:40;;;;;;;24.63;16.02;;;;;;;22.26;58.99;100599.34;5005841;28;20039;-83
2022/05/28 05:29:05;;;;;;;26.00;15.98;;;;;;;22.57;57.70;100588.22;4978777;28;20046;-84
2022/05/28 05:31:33;;;;;;;28.20;15.40;;;;;;;22.80;57.16;100615.53;4976848;28;20399;-82
2022/05/28 05:33:59;;;;;;;24.23;16.35;;;;;;;22.95;57.26;100617.78;5007548;28;20557;-85
2022/05/28 05:36:28;;;;;;;24.83;15.82;;;;;;;23.30;56.22;100606.69;4975339;28;20042;-86
2022/05/28 05:39:01;;;;;;;24.10;16.63;;;;;;;23.30;55.38;100594.88;4993102;28;20042;-84
2022/05/28 05:41:27;;;;;;;29.95;17.98;;;;;;;23.61;55.04;100604.47;4988170;28;20104;-85
2022/05/28 05:43:56;;;;;;;22.20;16.63;;;;;;;23.79;54.18;100596.03;4982227;28;20089;-85
2022/05/28 05:46:23;;;;;;;22.48;16.17;;;;;;;23.80;53.89;100589.44;4990583;28;20050;-84
2022/05/28 05:48:49;;;;;;;26.00;16.48;;;;;;;24.07;53.22;100594.25;4966845;28;20042;-82
2022/05/28 05:51:16;;;;;;;24.70;16.52;;;;;;;23.83;52.72;100596.34;4958383;28;20049;-82
2022/05/28 05:53:42;;;;;;;23.48;16.83;;;;;;;23.91;53.25;100598.66;4966416;28;20049;-82
2022/05/28 05:56:07;;;;;;;23.77;16.70;;;;;;;24.29;52.53;100605.25;4973032;28;20047;-82
2022/05/28 05:58:36;;;;;;;22.58;17.08;;;;;;;24.34;52.36;100590.75;4976425;28;20106;-84
2022/05/28 06:01:04;;;;;;;28.10;16.88;;;;;;;24.35;52.56;100586.91;4976968;28;20037;-82
2022/05/28 06:03:29;;;;;;;28.17;17.88;;;;;;;24.43;52.09;100583.75;4963107;28;20047;-82
2022/05/28 06:05:57;;;;;;;28.45;19.20;;;;;;;24.49;51.86;100581.91;4940336;28;20035;-83
2022/05/28 06:08:22;;;;;;;28.85;18.60;;;;;;;24.87;51.33;100597.50;4981159;28;20069;-84
2022/05/28 06:10:49;;;;;;;40.53;22.67;;;;;;;25.13;50.37;100592.28;4978030;28;20030;-82
2022/05/28 06:13:14;;;;;;;36.60;21.73;;;;;;;25.08;50.57;100551.00;4984721;28;20137;-82
2022/05/28 06:15:42;;;;;;;36.28;22.33;;;;;;;25.32;49.58;100551.50;5003906;28;20030;-83
2022/05/28 06:18:07;;;;;;;29.60;19.73;;;;;;;25.32;49.55;100551.50;4970777;28;20124;-83
2022/05/28 06:20:34;;;;;;;31.35;17.75;;;;;;;25.42;49.59;100546.91;4969404;28;20072;-82
2022/05/28 06:23:02;;;;;;;25.88;16.20;;;;;;;25.85;48.58;100541.47;4990923;28;20053;-83
2022/05/28 06:25:27;;;;;;;22.02;15.95;;;;;;;26.06;47.57;100525.91;4960452;28;20069;-84
2022/05/28 06:27:57;;;;;;;23.33;14.20;;;;;;;26.44;46.60;100546.75;4980907;28;20037;-82
2022/05/28 06:30:23;;;;;;;26.77;14.13;;;;;;;26.74;45.90;100542.50;4980641;28;20033;-83
2022/05/28 06:32:52;;;;;;;16.23;14.15;;;;;;;26.97;44.80;100557.69;4989902;28;20030;-84
2022/05/28 06:35:21;;;;;;;20.23;14.93;;;;;;;27.23;44.48;100547.56;5009727;28;20141;-82
2022/05/28 06:37:49;;;;;;;27.42;17.90;;;;;;;27.25;44.87;100539.81;4972342;28;20049;-83
2022/05/28 06:40:16;;;;;;;23.88;16.70;;;;;;;27.49;44.32;100533.78;4975815;28;20085;-83
2022/05/28 06:42:42;;;;;;;20.40;15.18;;;;;;;27.76;43.89;100545.31;4967460;28;20466;-82
2022/05/28 06:45:13;;;;;;;22.58;16.27;;;;;;;27.91;43.41;100527.94;4996585;28;20073;-83
2022/05/28 06:47:41;;;;;;;22.98;15.98;;;;;;;27.86;43.21;100513.28;4967500;28;20116;-84
2022/05/28 06:52:51;;;;;;;14.98;11.07;;;;;;;28.34;41.19;100510.94;4989486;28;20108;-83
2022/05/28 06:55:16;;;;;;;15.15;10.70;;;;;;;28.75;40.28;100528.19;4944799;28;20435;-83
2022/05/28 06:57:43;;;;;;;13.07;10.43;;;;;;;28.94;39.19;100522.81;4994072;28;20057;-83
2022/05/28 07:00:09;;;;;;;12.38;8.90;;;;;;;29.11;38.34;100516.06;4978097;28;20033;-83
2022/05/28 07:02:37;;;;;;;10.27;9.20;;;;;;;29.31;37.78;100513.13;4947543;28;20402;-83
2022/05/28 07:05:02;;;;;;;17.55;10.60;;;;;;;29.59;37.73;100530.06;4989693;28;20048;-85
2022/05/28 07:07:32;;;;;;;12.25;9.60;;;;;;;29.53;37.39;100509.91;4970653;28;20029;-84
2022/05/28 07:09:58;;;;;;;12.23;10.07;;;;;;;29.78;37.18;100521.84;4997748;28;20038;-85
2022/05/28 07:12:30;;;;;;;14.18;9.50;;;;;;;29.94;35.41;100514.22;4976710;28;20049;-83
2022/05/28 07:15:04;;;;;;;14.88;9.32;;;;;;;30.17;35.62;100518.13;4994915;28;20050;-87
2022/05/28 07:17:31;;;;;;;10.25;9.25;;;;;;;30.19;35.62;100497.28;5003147;28;20129;-82
2022/05/28 07:19:59;;;;;;;10.43;7.95;;;;;;;30.63;34.84;100503.69;4989873;28;20037;-80
2022/05/28 07:22:25;;;;;;;9.77;8.00;;;;;;;31.08;34.68;100512.47;4959935;28;20088;-84
2022/05/28 07:24:51;;;;;;;11.18;8.30;;;;;;;31.47;33.65;100511.31;5006314;28;20037;-84
2022/05/28 07:27:18;;;;;;;12.05;8.63;;;;;;;31.82;33.24;100514.53;4979269;28;20057;-82
2022/05/28 07:29:44;;;;;;;21.20;9.80;;;;;;;31.77;33.12;100515.44;5021124;28;20046;-83
2022/05/28 07:32:12;;;;;;;19.90;12.27;;;;;;;31.92;33.37;100506.81;4995641;28;20061;-85
2022/05/28 07:34:44;;;;;;;21.52;14.85;;;;;;;31.68;35.51;100503.41;4976721;28;20049;-86
2022/05/28 07:37:10;;;;;;;26.98;17.70;;;;;;;31.47;36.71;100511.31;4995010;28;20129;-87
2022/05/28 07:39:39;;;;;;;23.60;17.40;;;;;;;31.37;36.90;100503.09;5000943;28;20041;-88
2022/05/28 07:42:05;;;;;;;23.85;17.25;;;;;;;31.58;36.95;100501.63;5008087;28;20113;-89
2022/05/28 07:44:31;;;;;;;21.83;17.27;;;;;;;31.59;37.08;100503.28;5004359;28;20060;-87
2022/05/28 07:46:58;;;;;;;29.88;19.23;;;;;;;30.70;38.55;100512.47;5013175;28;20054;-89
2022/05/28 07:49:24;;;;;;;23.40;17.40;;;;;;;30.54;39.07;100513.81;4987403;28;20029;-90
2022/05/28 07:51:53;;;;;;;22.65;17.40;;;;;;;30.09;40.00;100527.91;4992982;28;20427;-84
2022/05/28 07:54:19;;;;;;;21.27;17.42;;;;;;;29.22;41.99;100520.41;5009675;28;20034;-84
2022/05/28 07:56:44;;;;;;;20.67;17.08;;;;;;;28.51;43.55;100528.00;5002997;28;20051;-86
2022/05/28 07:59:20;;;;;;;20.70;16.98;;;;;;;28.18;44.74;100530.34;4976300;28;20644;-85
2022/05/28 08:01:46;;;;;;;19.15;17.05;;;;;;;27.91;45.13;100527.94;5004408;28;20034;-83
2022/05/28 08:04:11;;;;;;;20.42;16.05;;;;;;;27.79;45.46;100527.38;4985643;28;20101;-87
2022/05/28 08:06:37;;;;;;;21.45;17.33;;;;;;;27.56;46.01;100518.56;4990235;28;20060;-81
2022/05/28 08:09:07;;;;;;;18.95;16.17;;;;;;;27.61;46.07;100519.69;4969367;28;20593;-83
2022/05/28 08:11:36;;;;;;;20.80;15.70;;;;;;;28.58;43.99;100513.88;4996973;28;20033;-82
2022/05/28 08:14:01;;;;;;;19.25;15.30;;;;;;;29.11;42.52;100505.00;4955437;28;20054;-82
2022/05/28 08:16:27;;;;;;;16.02;14.32;;;;;;;29.73;40.99;100508.06;4985161;28;20525;-82
2022/05/28 08:18:54;;;;;;;16.75;14.95;;;;;;;30.06;40.62;100511.84;4992812;28;20077;-82
2022/05/28 08:24:05;;;;;;;16.58;14.88;;;;;;;28.23;43.97;100518.44;4993250;28;20076;-82
2022/05/28 08:26:32;;;;;;;17.58;15.68;;;;;;;27.23;45.93;100510.84;4997131;28;20113;-86
2022/05/28 08:28:59;;;;;;;16.63;14.88;;;;;;;26.87;47.00;100525.41;5010471;28;20071;-81
2022/05/28 08:31:25;;;;;;;18.60;14.98;;;;;;;26.58;48.20;100525.06;4992012;28;20191;-83
2022/05/28 08:33:51;;;;;;;18.77;15.02;;;;;;;26.95;47.21;100524.88;5000414;28;20046;-80
2022/05/28 08:36:19;;;;;;;18.45;14.90;;;;;;;27.70;45.54;100523.53;4958781;28;20074;-80
2022/05/28 08:38:45;;;;;;;15.18;12.65;;;;;;;28.35;43.80;100507.91;4966465;28;20426;-83
2022/05/28 08:41:19;;;;;;;16.38;14.73;;;;;;;27.83;44.47;100531.25;4995247;28;20152;-83
2022/05/28 08:43:54;;;;;;;15.50;13.90;;;;;;;28.33;43.35;100510.13;5001450;28;20038;-85
2022/05/28 08:46:20;;;;;;;20.42;14.25;;;;;;;28.22;43.69;100508.50;4988036;28;20045;-83
2022/05/28 08:48:53;;;;;;;16.40;13.25;;;;;;;28.41;43.17;100506.75;4969550;28;20034;-87
2022/05/28 08:51:37;;;;;;;14.20;12.80;;;;;;;28.80;42.29;100511.56;4991518;28;20034;-87
2022/05/28 08:54:32;;;;;;;12.27;10.98;;;;;;;29.00;41.61;100523.59;4983847;28;20426;-84
2022/05/28 08:57:03;;;;;;;12.40;11.07;;;;;;;28.41;43.28;100511.44;4979121;28;20160;-83
2022/05/28 08:59:33;;;;;;;12.48;11.02;;;;;;;27.81;43.97;100535.38;4979972;28;20516;-82
2022/05/28 09:02:00;;;;;;;12.70;11.02;;;;;;;28.36;43.05;100517.84;4995300;28;20042;-84
2022/05/28 09:04:33;;;;;;;12.35;11.10;;;;;;;28.58;42.61;100522.19;5000951;28;20084;-82
2022/05/28 09:07:05;;;;;;;12.18;10.88;;;;;;;29.38;41.29;100524.69;4980288;28;20057;-81
2022/05/28 09:09:46;;;;;;;10.40;9.30;;;;;;;30.02;39.51;100527.44;4999798;28;20133;-80
2022/05/28 09:12:20;;;;;;;11.40;9.05;;;;;;;31.07;37.51;100516.34;5000491;28;20147;-83
2022/05/28 09:14:55;;;;;;;9.65;8.65;;;;;;;31.68;36.32;100520.91;5001231;28;20042;-81
2022/05/28 09:17:36;;;;;;;10.55;9.00;;;;;;;32.11;35.18;100525.41;5001673;28;20058;-86
2022/05/28 09:20:23;;;;;;;9.15;8.18;;;;;;;30.70;36.82;100518.00;4989036;28;20038;-81
2022/05/28 09:22:51;;;;;;;10.25;8.48;;;;;;;31.67;35.62;100510.91;4994263;28;20034;-82
2022/05/28 09:25:18;;;;;;;9.98;8.90;;;;;;;30.29;38.10;100515.75;4973955;28;20111;-81
2022/05/28 09:28:17;;;;;;;10.95;8.95;;;;;;;31.48;36.10;100516.53;4997091;28;20038;-87
2022/05/28 09:31:03;;;;;;;9.40;8.52;;;;;;;30.65;37.46;100509.75;5008543;28;20046;-82
2022/05/28 09:33:32;;;;;;;9.95;8.95;;;;;;;31.80;35.52;100511.25;4985320;28;20038;-85
2022/05/28 09:36:26;;;;;;;12.43;8.65;;;;;;;32.74;33.38;100507.13;5010929;28;20579;-82
2022/05/28 09:39:30;;;;;;;9.98;8.60;;;;;;;32.42;34.20;100508.06;4993690;28;20415;-84
2022/05/28 09:42:08;;;;;;;10.70;9.27;;;;;;;32.21;34.34;100507.69;5009547;28;20033;-84
2022/05/28 09:44:52;;;;;;;10.75;9.70;;;;;;;32.51;33.92;100507.06;4979129;28;20066;-82
2022/05/28 09:47:24;;;;;;;12.85;10.98;;;;;;;32.08;34.78;100509.34;5001629;28;20040;-84
2022/05/28 09:49:59;;;;;;;15.07;13.05;;;;;;;30.06;38.27;100498.84;5005586;28;20050;-86
2022/05/28 09:54:16;;;;;;;16.98;15.15;;;;;;;29.58;39.48;100506.25;5006446;28;20039;-85
2022/05/28 09:55:20;;;;;;;15.85;14.32;;;;;;;28.31;42.24;100514.28;4990583;28;20042;-89
2022/05/28 09:57:59;;;;;;;16.40;14.70;;;;;;;27.73;43.38;100511.94;4987793;28;20072;-84
2022/05/28 10:00:30;;;;;;;15.98;14.05;;;;;;;27.65;43.89;100524.38;4997565;28;20121;-88
2022/05/28 10:06:05;;;;;;;18.63;15.57;;;;;;;30.88;37.93;100522.78;4995054;28;20122;-82
2022/05/28 10:08:31;;;;;;;16.95;15.05;;;;;;;31.03;36.86;100509.78;4974499;28;20046;-83
2022/05/28 10:11:04;;;;;;;15.43;13.48;;;;;;;30.68;37.15;100512.75;4979458;28;20052;-82
2022/05/28 10:13:31;;;;;;;15.68;13.98;;;;;;;30.14;38.63;100496.53;4986371;28;20070;-84
2022/05/28 10:16:01;;;;;;;15.80;13.05;;;;;;;29.04;40.62;100508.88;4983627;28;20095;-83
2022/05/28 10:18:37;;;;;;;18.65;13.63;;;;;;;29.13;40.92;100508.31;4965469;28;20048;-83
2022/05/28 10:21:33;;;;;;;15.00;13.02;;;;;;;28.53;41.97;100516.69;4963084;28;20038;-82
2022/05/28 10:24:04;;;;;;;16.27;14.57;;;;;;;27.75;43.47;100521.59;4978855;28;20101;-80
2022/05/28 10:26:36;;;;;;;17.13;13.18;;;;;;;28.83;42.01;100505.44;4959979;28;20102;-81
2022/05/28 10:29:18;;;;;;;18.92;14.73;;;;;;;28.45;42.28;100489.56;4945885;28;20097;-84
2022/05/28 10:31:51;;;;;;;15.55;13.90;;;;;;;28.83;41.71;100502.66;4961847;28;20183;-92
2022/05/28 10:34:43;;;;;;;16.42;14.65;;;;;;;28.08;43.29;100497.22;4957954;28;20046;-80
2022/05/28 10:37:19;;;;;;;17.75;15.82;;;;;;;28.79;41.77;100482.22;4981561;28;20121;-83
2022/05/28 10:39:48;;;;;;;17.88;14.82;;;;;;;29.17;40.85;100498.28;4992239;28;20038;-81
2022/05/28 10:42:20;;;;;;;17.88;15.98;;;;;;;28.64;42.18;100496.16;4978803;28;20031;-81
2022/05/28 10:44:46;;;;;;;18.15;16.02;;;;;;;29.21;40.85;100493.84;4950789;28;20043;-82
2022/05/28 10:47:56;;;;;;;17.63;15.75;;;;;;;29.57;40.48;100488.81;4978092;28;20058;-83
2022/05/28 10:50:41;;;;;;;16.25;14.60;;;;;;;29.16;40.46;100475.34;4973246;28;20051;-83
2022/05/28 10:53:15;;;;;;;18.98;16.25;;;;;;;28.14;43.55;100495.25;4978713;28;20045;-80
2022/05/28 10:56:05;;;;;;;23.58;15.38;;;;;;;28.03;43.90;100494.47;4991098;28;20069;-84
2022/05/28 10:58:49;;;;;;;17.83;15.82;;;;;;;28.32;43.10;100491.84;4988019;28;20026;-83
2022/05/28 11:01:31;;;;;;;16.92;15.15;;;;;;;28.51;42.69;100488.47;4990905;28;20057;-81
2022/05/28 11:04:48;;;;;;;17.80;16.00;;;;;;;28.34;42.93;100473.06;4987847;28;20110;-80
2022/05/28 11:07:28;;;;;;;18.27;15.43;;;;;;;28.36;42.64;100470.00;4971702;28;20422;-82
2022/05/28 11:10:02;;;;;;;18.67;16.65;;;;;;;27.66;44.60;100468.03;4996884;28;20053;-81
2022/05/28 11:12:54;;;;;;;17.33;15.52;;;;;;;28.04;43.65;100476.78;5001909;28;20072;-82
2022/05/28 11:15:41;;;;;;;17.42;15.63;;;;;;;27.54;44.01;100481.31;5009318;28;20025;-82
2022/05/28 11:18:35;;;;;;;18.00;15.30;;;;;;;27.00;45.29;100479.91;5002401;28;20034;-82
2022/05/28 11:21:34;;;;;;;20.33;16.05;;;;;;;26.78;46.78;100482.91;5003784;28;20041;-80
2022/05/28 11:24:05;;;;;;;16.65;13.55;;;;;;;26.78;46.04;100485.66;4972851;28;20049;-80
2022/05/28 11:26:45;;;;;;;17.30;15.43;;;;;;;26.32;47.54;100461.56;5017837;28;20053;-82
2022/05/28 11:29:21;;;;;;;15.98;14.38;;;;;;;26.59;47.01;100471.56;5009000;28;20716;-82
2022/05/28 11:31:53;;;;;;;15.82;14.10;;;;;;;26.61;46.44;100463.03;4977603;28;20507;-82
2022/05/28 11:34:34;;;;;;;16.00;14.02;;;;;;;27.04;45.91;100477.41;4984593;28;20116;-81
2022/05/28 11:37:21;;;;;;;18.27;15.80;;;;;;;27.58;44.73;100466.66;5005051;28;20034;-84
2022/05/28 11:39:56;;;;;;;15.88;12.18;;;;;;;27.55;44.04;100460.88;4978184;28;20143;-87
2022/05/28 11:42:48;;;;;;;14.70;12.65;;;;;;;27.85;43.56;100453.66;5008410;28;20029;-87
2022/05/28 11:45:18;;;;;;;12.93;11.52;;;;;;;27.04;45.55;100453.44;4943815;28;20077;-83
2022/05/28 11:47:49;;;;;;;18.63;15.35;;;;;;;26.81;46.61;100460.31;4936837;29;20054;-82
2022/05/28 11:53:43;;;;;;;13.50;12.05;;;;;;;26.83;46.48;100460.88;4917661;29;20097;-83